createdAt,value
2023-03-29T00:00:09.518Z,1.80
2023-03-29T00:02:39.276Z,1.65
2023-03-29T00:05:07.571Z,1.42
2023-03-29T00:07:35.242Z,1.90
2023-03-29T00:10:04.775Z,1.58
2023-03-29T00:12:32.816Z,1.90
2023-03-29T00:15:00.467Z,1.50
2023-03-29T00:17:28.568Z,1.38
2023-03-29T00:19:59.199Z,2.00
2023-03-29T00:22:26.643Z,1.80
2023-03-29T00:25:01.480Z,1.73
2023-03-29T00:27:29.340Z,1.42
2023-03-29T00:29:57.893Z,1.65
2023-03-29T00:32:27.512Z,2.30
2023-03-29T00:34:56.775Z,1.90
2023-03-29T00:37:29.784Z,1.70
2023-03-29T00:39:57.953Z,2.22
2023-03-29T00:42:26.251Z,2.15
2023-03-29T00:45:05.315Z,2.00
2023-03-29T00:47:50.243Z,1.67
2023-03-29T00:52:56.326Z,2.10
2023-03-29T00:55:27.659Z,1.85
2023-03-29T00:57:57.270Z,2.00
2023-03-29T01:00:31.891Z,2.10
2023-03-29T01:03:03.211Z,2.00
2023-03-29T01:05:39.229Z,1.95
2023-03-29T01:08:12.412Z,1.60
2023-03-29T01:10:48.674Z,1.75
2023-03-29T01:13:22.410Z,1.95
2023-03-29T01:15:52.804Z,1.85
2023-03-29T01:18:23.138Z,1.98
2023-03-29T01:21:10.156Z,2.13
2023-03-29T01:23:58.636Z,2.03
2023-03-29T01:26:38.540Z,2.58
2023-03-29T01:29:17.738Z,1.60
2023-03-29T01:31:50.188Z,1.80
2023-03-29T01:34:30.332Z,1.90
2023-03-29T01:37:17.229Z,2.42
2023-03-29T01:39:45.887Z,1.77
2023-03-29T01:42:26.978Z,2.05
2023-03-29T01:45:13.157Z,2.00
2023-03-29T01:48:06.098Z,1.90
2023-03-29T01:50:43.461Z,2.28
2023-03-29T01:53:43.134Z,2.28
2023-03-29T01:56:19.446Z,1.75
2023-03-29T01:58:57.629Z,2.22
2023-03-29T02:01:30.012Z,2.00
2023-03-29T02:04:03.015Z,1.98
2023-03-29T02:06:36.025Z,2.30
2023-03-29T02:09:05.249Z,1.98
2023-03-29T02:11:36.211Z,2.15
2023-03-29T02:14:03.775Z,2.15
2023-03-29T02:16:39.065Z,2.20
2023-03-29T02:19:09.533Z,2.28
2023-03-29T02:21:42.931Z,2.38
2023-03-29T02:24:14.363Z,2.13
2023-03-29T02:26:41.851Z,2.10
2023-03-29T02:29:09.841Z,2.53
2023-03-29T02:31:42.985Z,2.00
2023-03-29T02:34:30.159Z,2.30
2023-03-29T02:37:00.983Z,2.53
2023-03-29T02:39:32.292Z,2.20
2023-03-29T02:42:01.205Z,2.20
2023-03-29T02:44:31.615Z,2.00
2023-03-29T02:47:24.593Z,2.17
2023-03-29T02:49:52.490Z,2.33
2023-03-29T02:52:25.799Z,2.45
2023-03-29T02:54:55.874Z,2.30
2023-03-29T02:57:26.573Z,2.40
2023-03-29T02:59:57.050Z,2.33
2023-03-29T03:02:26.281Z,2.35
2023-03-29T03:04:54.808Z,1.90
2023-03-29T03:07:22.652Z,2.55
2023-03-29T03:09:50.160Z,2.15
2023-03-29T03:12:17.711Z,2.10
2023-03-29T03:14:45.736Z,2.53
2023-03-29T03:17:13.200Z,2.40
2023-03-29T03:19:40.806Z,2.53
2023-03-29T03:22:10.007Z,2.10
2023-03-29T03:24:37.730Z,2.30
2023-03-29T03:27:06.293Z,2.40
2023-03-29T03:29:35.334Z,2.60
2023-03-29T03:32:22.787Z,2.25
2023-03-29T03:35:16.320Z,2.30
2023-03-29T03:37:44.199Z,1.95
2023-03-29T03:40:13.492Z,2.33
2023-03-29T03:42:41.452Z,2.40
2023-03-29T03:45:12.291Z,2.10
2023-03-29T03:48:06.968Z,2.28
2023-03-29T03:51:10.219Z,2.00
2023-03-29T03:53:37.989Z,2.03
2023-03-29T03:56:31.372Z,2.30
2023-03-29T03:59:11.000Z,2.33
2023-03-29T04:01:48.346Z,2.45
2023-03-29T04:04:20.165Z,2.33
2023-03-29T04:07:13.111Z,2.22
2023-03-29T04:10:01.202Z,2.55
2023-03-29T04:12:38.477Z,2.50
2023-03-29T04:15:08.727Z,2.35
2023-03-29T04:17:36.874Z,2.38
2023-03-29T04:20:14.990Z,2.28
2023-03-29T04:22:42.440Z,2.60
2023-03-29T04:25:11.778Z,2.38
2023-03-29T04:27:49.992Z,2.33
2023-03-29T04:30:36.027Z,2.10
2023-03-29T04:33:32.558Z,2.67
2023-03-29T04:36:01.667Z,2.45
2023-03-29T04:38:31.384Z,2.45
2023-03-29T04:41:01.411Z,2.53
2023-03-29T04:43:47.727Z,2.38
2023-03-29T04:46:26.480Z,2.60
2023-03-29T04:49:17.707Z,2.45
2023-03-29T04:51:49.462Z,2.40
2023-03-29T04:54:21.341Z,2.05
2023-03-29T04:57:17.258Z,2.30
2023-03-29T05:00:14.603Z,2.47
2023-03-29T05:03:17.335Z,2.38
2023-03-29T05:05:54.775Z,2.75
2023-03-29T05:08:22.214Z,2.28
2023-03-29T05:11:11.737Z,2.35
2023-03-29T05:13:42.773Z,2.17
2023-03-29T05:16:11.299Z,2.42
2023-03-29T05:18:39.558Z,3.10
2023-03-29T05:21:07.770Z,2.40
2023-03-29T05:23:37.519Z,3.20
2023-03-29T05:26:09.855Z,2.50
2023-03-29T05:28:38.701Z,2.35
2023-03-29T05:31:07.158Z,3.00
2023-03-29T05:33:39.590Z,2.80
2023-03-29T05:36:11.220Z,2.50
2023-03-29T05:38:46.688Z,2.80
2023-03-29T05:41:15.924Z,2.75
2023-03-29T05:44:06.587Z,2.92
2023-03-29T05:46:34.607Z,2.67
2023-03-29T05:49:04.438Z,2.80
2023-03-29T05:51:52.525Z,2.47
2023-03-29T05:54:20.115Z,3.00
2023-03-29T05:56:47.609Z,2.63
2023-03-29T05:59:17.647Z,3.17
2023-03-29T06:01:48.539Z,2.60
2023-03-29T06:04:19.661Z,3.38
2023-03-29T06:07:00.306Z,2.97
2023-03-29T06:09:28.725Z,2.72
2023-03-29T06:12:04.334Z,3.03
2023-03-29T06:14:38.847Z,2.55
2023-03-29T06:17:33.797Z,2.92
2023-03-29T06:20:04.564Z,2.88
2023-03-29T06:22:32.450Z,3.35
2023-03-29T06:25:01.192Z,2.90
2023-03-29T06:27:34.608Z,2.85
2023-03-29T06:30:02.808Z,3.25
2023-03-29T06:32:34.901Z,3.20
2023-03-29T06:35:24.863Z,2.55
2023-03-29T06:38:00.232Z,2.92
2023-03-29T06:40:38.902Z,3.25
2023-03-29T06:43:07.500Z,3.90
2023-03-29T06:45:55.250Z,3.50
2023-03-29T06:48:33.065Z,3.47
2023-03-29T06:51:01.171Z,3.90
2023-03-29T06:53:30.782Z,3.63
2023-03-29T06:56:09.315Z,3.75
2023-03-29T06:58:45.132Z,3.70
2023-03-29T07:01:27.334Z,3.90
2023-03-29T07:04:09.736Z,3.40
2023-03-29T07:07:01.844Z,3.40
2023-03-29T07:09:39.439Z,3.50
2023-03-29T07:12:44.727Z,3.30
2023-03-29T07:15:15.793Z,3.75
2023-03-29T07:18:17.179Z,2.95
2023-03-29T07:20:49.366Z,3.20
2023-03-29T07:23:18.104Z,3.92
2023-03-29T07:25:47.375Z,3.53
2023-03-29T07:28:15.243Z,4.28
2023-03-29T07:30:42.956Z,4.07
2023-03-29T07:33:16.972Z,3.97
2023-03-29T07:35:50.996Z,3.95
2023-03-29T07:38:18.838Z,3.83
2023-03-29T07:40:50.399Z,4.22
2023-03-29T07:43:41.911Z,4.13
2023-03-29T07:46:11.755Z,4.10
2023-03-29T07:48:39.993Z,4.13
2023-03-29T07:51:10.071Z,4.28
2023-03-29T07:53:45.690Z,4.50
2023-03-29T07:56:30.537Z,4.13
2023-03-29T07:59:13.482Z,4.20
2023-03-29T08:01:44.625Z,5.30
2023-03-29T08:04:26.742Z,4.45
2023-03-29T08:07:16.382Z,5.28
2023-03-29T08:10:09.106Z,4.22
2023-03-29T08:12:57.300Z,4.22
2023-03-29T08:15:32.236Z,5.03
2023-03-29T08:18:01.003Z,5.07
2023-03-29T08:20:28.702Z,4.25
2023-03-29T08:23:01.442Z,5.10
2023-03-29T08:25:52.159Z,5.22
2023-03-29T08:28:19.665Z,5.40
2023-03-29T08:30:51.455Z,4.30
2023-03-29T08:33:19.142Z,4.95
2023-03-29T08:35:52.637Z,4.32
2023-03-29T08:38:29.316Z,5.20
2023-03-29T08:40:56.842Z,5.20
2023-03-29T08:43:37.914Z,5.15
2023-03-29T08:46:47.192Z,4.57
2023-03-29T08:49:27.125Z,5.07
2023-03-29T08:52:02.622Z,5.30
2023-03-29T08:54:41.603Z,4.70
2023-03-29T08:57:33.465Z,5.32
2023-03-29T09:00:10.614Z,5.30
2023-03-29T09:02:42.258Z,6.43
2023-03-29T09:05:22.868Z,4.82
2023-03-29T09:08:18.249Z,5.95
2023-03-29T09:11:13.382Z,6.22
2023-03-29T09:14:06.918Z,5.28
2023-03-29T09:16:48.528Z,5.78
2023-03-29T09:19:39.393Z,4.75
2023-03-29T09:22:31.383Z,5.68
2023-03-29T09:25:25.255Z,5.38
2023-03-29T09:28:19.255Z,5.10
2023-03-29T09:31:08.174Z,5.25
2023-03-29T09:34:09.809Z,5.28
2023-03-29T09:36:56.758Z,5.63
2023-03-29T09:39:28.469Z,5.50
2023-03-29T09:42:09.268Z,5.75
2023-03-29T09:44:49.110Z,6.20
2023-03-29T09:47:52.874Z,6.13
2023-03-29T09:50:31.617Z,6.53
2023-03-29T09:53:02.040Z,5.82
2023-03-29T09:55:34.129Z,6.03
2023-03-29T09:58:36.112Z,6.57
2023-03-29T10:01:10.382Z,6.63
2023-03-29T10:03:39.968Z,6.20
2023-03-29T10:06:14.679Z,6.20
2023-03-29T10:08:58.970Z,6.30
2023-03-29T10:11:37.250Z,5.90
2023-03-29T10:14:13.893Z,6.68
2023-03-29T10:16:46.294Z,5.80
2023-03-29T10:19:19.220Z,7.00
2023-03-29T10:21:55.101Z,6.65
2023-03-29T10:24:27.053Z,5.53
2023-03-29T10:27:01.678Z,6.30
2023-03-29T10:32:18.356Z,6.97
2023-03-29T10:34:47.722Z,6.78
2023-03-29T10:37:19.360Z,5.75
2023-03-29T10:39:48.348Z,6.72
2023-03-29T10:42:18.969Z,7.10
2023-03-29T10:44:58.361Z,6.85
2023-03-29T10:47:31.608Z,7.47
2023-03-29T10:49:59.064Z,7.60
2023-03-29T10:52:29.316Z,7.32
2023-03-29T10:54:57.030Z,7.28
2023-03-29T10:57:52.075Z,7.22
2023-03-29T11:00:37.364Z,7.60
2023-03-29T11:03:17.100Z,6.63
2023-03-29T11:05:54.039Z,7.43
2023-03-29T11:08:44.545Z,7.18
2023-03-29T11:11:36.315Z,6.40
2023-03-29T11:14:08.646Z,6.68
2023-03-29T11:16:46.881Z,6.72
2023-03-29T11:19:38.716Z,6.70
2023-03-29T11:22:15.849Z,6.88
2023-03-29T11:25:02.169Z,6.90
2023-03-29T11:27:46.144Z,7.47
2023-03-29T11:30:23.965Z,7.72
2023-03-29T11:33:28.921Z,8.00
2023-03-29T11:36:02.966Z,8.95
2023-03-29T11:38:50.968Z,7.90
2023-03-29T11:41:26.851Z,8.05
2023-03-29T11:44:06.218Z,9.00
2023-03-29T11:46:42.621Z,8.57
2023-03-29T11:49:25.250Z,7.25
2023-03-29T11:51:59.584Z,7.78
2023-03-29T11:54:53.537Z,7.30
2023-03-29T11:57:50.818Z,8.35
2023-03-29T12:00:20.818Z,8.45
2023-03-29T12:02:56.055Z,8.45
2023-03-29T12:05:30.999Z,8.75
2023-03-29T12:08:20.247Z,8.35
2023-03-29T12:10:59.085Z,9.07
2023-03-29T12:13:33.888Z,9.50
2023-03-29T12:16:46.631Z,9.40
2023-03-29T12:19:14.005Z,9.05
2023-03-29T12:21:42.530Z,9.48
2023-03-29T12:24:16.374Z,9.18
2023-03-29T12:27:02.927Z,9.18
2023-03-29T12:29:36.407Z,9.10
2023-03-29T12:32:22.099Z,8.73
2023-03-29T12:35:52.913Z,7.88
2023-03-29T12:38:59.223Z,8.63
2023-03-29T12:41:49.277Z,9.07
2023-03-29T12:44:35.823Z,8.90
2023-03-29T12:47:26.665Z,8.77
2023-03-29T12:49:59.393Z,8.88
2023-03-29T12:52:36.778Z,8.00
2023-03-29T12:55:23.771Z,7.05
2023-03-29T12:58:21.222Z,6.50
2023-03-29T13:01:16.786Z,6.35
2023-03-29T13:03:51.978Z,6.80
2023-03-29T13:06:51.199Z,6.13
2023-03-29T13:09:22.733Z,6.55
2023-03-29T13:12:22.088Z,6.07
2023-03-29T13:15:16.946Z,6.97
2023-03-29T13:18:06.985Z,6.55
2023-03-29T13:20:43.364Z,6.95
2023-03-29T13:23:33.453Z,7.32
2023-03-29T13:26:30.454Z,6.90
2023-03-29T13:29:11.494Z,6.43
2023-03-29T13:31:53.885Z,6.60
2023-03-29T13:34:46.571Z,7.03
2023-03-29T13:37:44.218Z,7.60
2023-03-29T13:40:46.829Z,7.82
2023-03-29T13:43:34.683Z,8.13
2023-03-29T13:46:03.913Z,7.78
2023-03-29T13:48:37.877Z,7.95
2023-03-29T13:51:17.473Z,8.10
2023-03-29T13:54:13.526Z,8.32
2023-03-29T13:57:01.626Z,8.27
2023-03-29T13:59:53.232Z,8.27
2023-03-29T14:02:42.767Z,8.15
2023-03-29T14:05:15.881Z,9.10
2023-03-29T14:07:54.729Z,9.15
2023-03-29T14:10:41.202Z,8.95
2023-03-29T14:13:18.248Z,8.52
2023-03-29T14:15:52.124Z,9.60
2023-03-29T14:18:23.114Z,8.48
2023-03-29T14:20:55.513Z,9.32
2023-03-29T14:23:25.518Z,9.57
2023-03-29T14:25:53.132Z,9.20
2023-03-29T14:28:27.045Z,9.63
2023-03-29T14:30:56.749Z,9.32
2023-03-29T14:33:34.510Z,8.80
2023-03-29T14:36:08.800Z,9.38
2023-03-29T14:38:37.689Z,9.15
2023-03-29T14:41:07.527Z,9.50
2023-03-29T14:43:35.049Z,8.73
2023-03-29T14:46:08.231Z,9.35
2023-03-29T14:48:37.398Z,9.80
2023-03-29T14:51:05.895Z,9.23
2023-03-29T14:53:34.592Z,8.45
2023-03-29T14:56:02.361Z,8.88
2023-03-29T14:58:34.256Z,7.53
2023-03-29T15:01:22.926Z,9.18
2023-03-29T15:04:04.517Z,8.40
2023-03-29T15:06:37.996Z,8.05
2023-03-29T15:09:07.279Z,7.78
2023-03-29T15:11:36.204Z,7.40
2023-03-29T15:14:08.846Z,7.50
2023-03-29T15:16:41.883Z,6.75
2023-03-29T15:19:21.335Z,6.35
2023-03-29T15:21:50.061Z,6.10
2023-03-29T15:24:31.784Z,6.60
2023-03-29T15:27:14.572Z,5.97
2023-03-29T15:29:43.757Z,6.30
2023-03-29T15:32:24.009Z,5.38
2023-03-29T15:35:02.575Z,5.60
2023-03-29T15:37:30.043Z,6.20
2023-03-29T15:39:57.561Z,5.80
2023-03-29T15:42:25.737Z,5.88
2023-03-29T15:44:56.864Z,5.63
2023-03-29T15:47:24.356Z,6.07
2023-03-29T15:49:51.929Z,6.18
2023-03-29T15:52:19.541Z,6.13
2023-03-29T15:54:46.910Z,5.47
2023-03-29T15:57:16.298Z,5.97
2023-03-29T15:59:44.480Z,5.50
2023-03-29T16:02:15.705Z,5.65
2023-03-29T16:04:43.571Z,5.25
2023-03-29T16:07:14.893Z,4.60
2023-03-29T16:09:43.290Z,4.60
2023-03-29T16:12:11.838Z,4.60
2023-03-29T16:14:39.456Z,4.50
2023-03-29T16:17:07.116Z,4.57
2023-03-29T16:19:35.000Z,4.53
2023-03-29T16:22:07.150Z,4.38
2023-03-29T16:24:35.844Z,4.43
2023-03-29T16:27:03.927Z,3.78
2023-03-29T16:29:31.869Z,4.15
2023-03-29T16:31:59.666Z,3.97
2023-03-29T16:34:27.069Z,3.78
2023-03-29T16:36:54.525Z,3.50
2023-03-29T16:39:22.016Z,3.50
2023-03-29T16:41:50.884Z,3.47
2023-03-29T16:44:23.914Z,3.08
2023-03-29T16:46:57.551Z,3.35
2023-03-29T16:49:25.024Z,3.13
2023-03-29T16:51:52.448Z,3.33
2023-03-29T16:54:20.003Z,3.05
2023-03-29T16:56:47.580Z,3.08
2023-03-29T16:59:15.293Z,3.13
2023-03-29T17:01:43.085Z,2.97
2023-03-29T17:04:11.537Z,3.15
2023-03-29T17:06:39.017Z,3.20
2023-03-29T17:09:07.303Z,2.88
2023-03-29T17:11:34.946Z,3.00
2023-03-29T17:14:02.454Z,2.92
2023-03-29T17:16:30.214Z,3.10
2023-03-29T17:19:00.974Z,2.85
2023-03-29T17:21:29.765Z,2.80
2023-03-29T17:23:57.519Z,2.90
2023-03-29T17:26:26.650Z,3.05
2023-03-29T17:28:54.250Z,3.35
2023-03-29T17:31:21.745Z,3.28
2023-03-29T17:33:51.884Z,3.22
2023-03-29T17:36:24.057Z,2.78
2023-03-29T17:38:51.879Z,2.90
2023-03-29T17:41:19.400Z,3.30
2023-03-29T17:43:47.813Z,3.40
2023-03-29T17:46:16.548Z,3.47
2023-03-29T17:48:46.770Z,3.40
2023-03-29T17:51:14.154Z,3.15
2023-03-29T17:53:41.466Z,3.60
2023-03-29T17:56:09.268Z,3.35
2023-03-29T17:58:36.689Z,3.38
2023-03-29T18:01:14.536Z,3.58
2023-03-29T18:03:42.785Z,3.78
2023-03-29T18:06:11.565Z,4.07
2023-03-29T18:08:39.358Z,4.00
2023-03-29T18:11:30.885Z,3.88
2023-03-29T18:14:00.732Z,3.95
2023-03-29T18:16:28.602Z,4.53
2023-03-29T18:18:56.627Z,4.10
2023-03-29T18:21:27.103Z,4.40
2023-03-29T18:23:56.989Z,4.10
2023-03-29T18:26:25.172Z,4.15
2023-03-29T18:28:54.414Z,4.05
2023-03-29T18:31:22.093Z,4.25
2023-03-29T18:33:49.618Z,4.63
2023-03-29T18:36:19.271Z,4.22
2023-03-29T18:38:46.796Z,4.03
2023-03-29T18:41:14.673Z,4.22
2023-03-29T18:43:43.160Z,4.63
2023-03-29T18:46:10.864Z,4.10
2023-03-29T18:48:41.863Z,4.38
2023-03-29T18:51:11.579Z,4.45
2023-03-29T18:53:41.552Z,4.25
2023-03-29T18:56:11.944Z,4.25
2023-03-29T18:58:39.312Z,4.32
2023-03-29T19:01:06.863Z,4.20
2023-03-29T19:03:35.133Z,4.30
2023-03-29T19:06:03.848Z,3.65
2023-03-29T19:08:32.970Z,3.83
2023-03-29T19:11:02.376Z,4.47
2023-03-29T19:13:29.867Z,3.92
2023-03-29T19:15:57.416Z,4.00
2023-03-29T19:18:25.236Z,3.80
2023-03-29T19:20:54.171Z,4.60
2023-03-29T19:23:22.983Z,4.10
2023-03-29T19:25:58.129Z,4.15
2023-03-29T19:28:26.423Z,3.80
2023-03-29T19:30:54.574Z,4.10
2023-03-29T19:33:23.266Z,4.60
2023-03-29T19:35:51.841Z,4.07
2023-03-29T19:38:20.213Z,3.90
2023-03-29T19:40:49.830Z,4.28
2023-03-29T19:43:20.643Z,4.03
2023-03-29T19:45:49.661Z,4.28
2023-03-29T19:48:23.538Z,4.45
2023-03-29T19:50:51.928Z,4.10
2023-03-29T19:53:19.466Z,4.60
2023-03-29T19:55:48.689Z,4.18
2023-03-29T19:58:18.372Z,4.47
2023-03-29T20:00:46.684Z,4.50
2023-03-29T20:03:15.680Z,4.43
2023-03-29T20:05:43.392Z,3.95
2023-03-29T20:08:11.484Z,4.80
2023-03-29T20:10:39.347Z,4.55
2023-03-29T20:13:06.843Z,3.80
2023-03-29T20:15:34.989Z,4.35
2023-03-29T20:18:02.472Z,4.57
2023-03-29T20:20:30.087Z,4.82
2023-03-29T20:22:58.553Z,4.32
2023-03-29T20:25:26.075Z,4.50
2023-03-29T20:27:53.639Z,4.82
2023-03-29T20:30:21.175Z,4.15
2023-03-29T20:32:48.636Z,4.45
2023-03-29T20:35:16.493Z,4.47
2023-03-29T20:37:43.936Z,4.25
2023-03-29T20:40:11.597Z,4.70
2023-03-29T20:42:39.272Z,4.55
2023-03-29T20:45:08.002Z,4.22
2023-03-29T20:47:42.479Z,4.00
2023-03-29T20:52:38.315Z,4.05
2023-03-29T20:55:05.996Z,3.85
2023-03-29T20:57:33.721Z,4.32
2023-03-29T21:00:01.890Z,4.45
2023-03-29T21:02:29.353Z,4.65
2023-03-29T21:05:00.240Z,4.10
2023-03-29T21:07:28.658Z,4.40
2023-03-29T21:09:56.300Z,3.90
2023-03-29T21:12:25.631Z,4.32
2023-03-29T21:14:53.108Z,4.25
2023-03-29T21:17:21.846Z,4.50
2023-03-29T21:19:49.253Z,3.85
2023-03-29T21:22:17.613Z,4.90
2023-03-29T21:24:45.009Z,4.32
2023-03-29T21:27:12.539Z,4.60
2023-03-29T21:29:40.062Z,5.10
2023-03-29T21:32:07.540Z,4.47
2023-03-29T21:34:34.827Z,4.82
2023-03-29T21:37:02.345Z,4.15
2023-03-29T21:39:30.238Z,4.30
2023-03-29T21:41:59.079Z,4.78
2023-03-29T21:44:26.776Z,4.75
2023-03-29T21:46:54.366Z,4.03
2023-03-29T21:49:21.952Z,4.60
2023-03-29T21:51:49.377Z,4.00
2023-03-29T21:54:17.130Z,4.03
2023-03-29T21:56:45.951Z,4.03
2023-03-29T21:59:13.647Z,4.30
2023-03-29T22:01:41.532Z,4.05
2023-03-29T22:04:09.030Z,4.15
2023-03-29T22:06:36.813Z,4.15
2023-03-29T22:09:05.146Z,4.32
2023-03-29T22:11:32.673Z,3.85
2023-03-29T22:14:00.158Z,4.10
2023-03-29T22:16:28.320Z,3.80
2023-03-29T22:18:55.843Z,3.70
2023-03-29T22:21:26.608Z,4.10
2023-03-29T22:23:56.113Z,3.60
2023-03-29T22:26:29.350Z,3.67
2023-03-29T22:28:57.848Z,3.30
2023-03-29T22:31:27.345Z,3.80
2023-03-29T22:33:55.705Z,3.50
2023-03-29T22:36:25.838Z,3.30
2023-03-29T22:38:54.316Z,3.58
2023-03-29T22:41:23.778Z,3.70
2023-03-29T22:43:55.006Z,3.28
2023-03-29T22:46:23.412Z,3.47
2023-03-29T22:48:52.312Z,3.80
2023-03-29T22:51:20.375Z,3.40
2023-03-29T22:53:47.886Z,3.47
2023-03-29T22:56:17.756Z,3.70
2023-03-29T22:58:45.723Z,3.70
2023-03-29T23:01:13.299Z,3.40
2023-03-29T23:03:40.866Z,2.97
2023-03-29T23:06:08.438Z,3.03
2023-03-29T23:08:36.517Z,3.88
2023-03-29T23:11:04.823Z,3.33
2023-03-29T23:13:33.592Z,3.38
2023-03-29T23:16:03.594Z,3.10
2023-03-29T23:18:34.755Z,3.58
2023-03-29T23:21:05.879Z,3.78
2023-03-29T23:23:33.891Z,3.72
2023-03-29T23:26:02.366Z,3.28
2023-03-29T23:28:34.527Z,3.38
2023-03-29T23:31:11.549Z,3.55
2023-03-29T23:33:41.305Z,3.50
2023-03-29T23:36:16.761Z,3.17
2023-03-29T23:38:45.812Z,3.40
2023-03-29T23:41:14.198Z,3.50
2023-03-29T23:43:43.153Z,3.10
2023-03-29T23:46:13.425Z,3.45
2023-03-29T23:48:49.021Z,3.17
2023-03-29T23:51:28.505Z,2.80
2023-03-29T23:53:56.863Z,3.10
2023-03-29T23:56:24.354Z,2.78
2023-03-29T23:58:51.822Z,3.17
